Map

Track Data

SID SEASON NUMBER BASIN SUBBASIN NAME ISO_TIME NATURE LAT LON WMO_WIND WMO_PRES WMO_AGENCY TRACK_TYPE DIST2LAND LANDFALL IFLAG USA_AGENCY USA_ATCF_ID USA_LAT USA_LON USA_RECORD USA_STATUS USA_WIND USA_PRES USA_SSHS USA_R34_NE USA_R34_SE USA_R34_SW USA_R34_NW USA_R50_NE USA_R50_SE USA_R50_SW USA_R50_NW USA_R64_NE USA_R64_SE USA_R64_SW USA_R64_NW USA_POCI USA_ROCI USA_RMW USA_EYE TOKYO_LAT TOKYO_LON TOKYO_GRADE TOKYO_WIND TOKYO_PRES TOKYO_R50_DIR TOKYO_R50_LONG TOKYO_R50_SHORT TOKYO_R30_DIR TOKYO_R30_LONG TOKYO_R30_SHORT TOKYO_LAND CMA_LAT CMA_LON CMA_CAT CMA_WIND CMA_PRES HKO_LAT HKO_LON HKO_CAT HKO_WIND HKO_PRES NEWDELHI_LAT NEWDELHI_LON NEWDELHI_GRADE NEWDELHI_WIND NEWDELHI_PRES NEWDELHI_CI NEWDELHI_DP NEWDELHI_POCI REUNION_LAT REUNION_LON REUNION_TYPE REUNION_WIND REUNION_PRES REUNION_TNUM REUNION_CI REUNION_RMW REUNION_R34_NE REUNION_R34_SE REUNION_R34_SW REUNION_R34_NW REUNION_R50_NE REUNION_R50_SE REUNION_R50_SW REUNION_R50_NW REUNION_R64_NE REUNION_R64_SE REUNION_R64_SW REUNION_R64_NW BOM_LAT BOM_LON BOM_TYPE BOM_WIND BOM_PRES BOM_TNUM BOM_CI BOM_RMW BOM_R34_NE BOM_R34_SE BOM_R34_SW BOM_R34_NW BOM_R50_NE BOM_R50_SE BOM_R50_SW BOM_R50_NW BOM_R64_NE BOM_R64_SE BOM_R64_SW BOM_R64_NW BOM_ROCI BOM_POCI BOM_EYE BOM_POS_METHOD BOM_PRES_METHOD NADI_LAT NADI_LON NADI_CAT NADI_WIND NADI_PRES WELLINGTON_LAT WELLINGTON_LON WELLINGTON_WIND WELLINGTON_PRES DS824_LAT DS824_LON DS824_STAGE DS824_WIND DS824_PRES TD9636_LAT TD9636_LON TD9636_STAGE TD9636_WIND TD9636_PRES TD9635_LAT TD9635_LON TD9635_WIND TD9635_PRES TD9635_ROCI NEUMANN_LAT NEUMANN_LON NEUMANN_CLASS NEUMANN_WIND NEUMANN_PRES MLC_LAT MLC_LON MLC_CLASS MLC_WIND MLC_PRES USA_GUST BOM_GUST BOM_GUST_PER REUNION_GUST REUNION_GUST_PER USA_SEAHGT USA_SEARAD_NE USA_SEARAD_SE USA_SEARAD_SW USA_SEARAD_NW STORM_SPEED STORM_DIR
1932257N14132 1932 50 WP MM NOT_NAMED 1932-09-13 10:00:00 NR 14.3000 132.000 main 742 721 __________O___ -1 14.3000 132.000 7 6 273
1932257N14132 1932 50 WP MM NOT_NAMED 1932-09-13 12:00:00 NR 14.3129 131.779 main 721 680 __________P___ -1 14.3129 131.779 7 7 274
1932257N14132 1932 50 WP MM NOT_NAMED 1932-09-13 15:00:00 NR 14.3398 131.437 main 680 654 __________P___ -1 14.3398 131.437 7 7 276
1932257N14132 1932 50 WP MM NOT_NAMED 1932-09-13 18:00:00 NR 14.3864 131.066 main 654 614 __________P___ -1 14.3864 131.066 7 8 279
1932257N14132 1932 50 WP MM NOT_NAMED 1932-09-13 21:00:00 NR 14.4648 130.651 main 618 599 __________P___ -1 14.4648 130.651 7 8 282
1932257N14132 1932 50 WP MM NOT_NAMED 1932-09-13 22:00:00 NR 14.5000 130.500 main 599 575 __________O___ -1 14.5000 130.500 3 10 285
1932257N14132 1932 50 WP MM NOT_NAMED 1932-09-14 00:00:00 NR 14.5855 130.176 main 575 524 __________P___ -1 14.5855 130.176 3 10 287
1932257N14132 1932 50 WP MM NOT_NAMED 1932-09-14 03:00:00 NR 14.7453 129.646 main 524 492 __________P___ -1 14.7453 129.646 3 11 288
1932257N14132 1932 50 WP MM NOT_NAMED 1932-09-14 06:00:00 NR 14.9316 129.079 main 492 458 __________P___ -1 14.9316 129.079 3 12 289
1932257N14132 1932 50 WP MM NOT_NAMED 1932-09-14 09:00:00 NR 15.1321 128.495 main 458 444 __________P___ -1 15.1321 128.495 3 12 290
1932257N14132 1932 50 WP MM NOT_NAMED 1932-09-14 10:00:00 NR 15.2000 128.300 main 444 408 __________O___ -1 15.2000 128.300 4 12 289
1932257N14132 1932 50 WP MM NOT_NAMED 1932-09-14 12:00:00 NR 15.3249 127.914 main 408 359 __________P___ -1 15.3249 127.914 4 12 289
1932257N14132 1932 50 WP MM NOT_NAMED 1932-09-14 15:00:00 NR 15.5186 127.330 main 359 319 __________P___ -1 15.5186 127.330 4 12 289
1932257N14132 1932 50 WP MM NOT_NAMED 1932-09-14 18:00:00 NR 15.7199 126.748 main 319 294 __________P___ -1 15.7199 126.748 4 12 290
1932257N14132 1932 50 WP MM NOT_NAMED 1932-09-14 21:00:00 NR 15.9287 126.183 main 294 288 __________P___ -1 15.9287 126.183 4 12 291
1932257N14132 1932 50 WP MM NOT_NAMED 1932-09-14 22:00:00 NR 16.0000 126.000 main 288 273 __________O___ -1 16.0000 126.000 4 11 293
1932257N14132 1932 50 WP MM NOT_NAMED 1932-09-15 00:00:00 NR 16.1439 125.644 main 273 273 __________P___ -1 16.1439 125.644 4 11 294
1932257N14132 1932 50 WP MM NOT_NAMED 1932-09-15 03:00:00 NR 16.3664 125.129 main 282 226 __________P___ -1 16.3664 125.129 4 11 295
1932257N14132 1932 50 WP MM NOT_NAMED 1932-09-15 06:00:00 NR 16.5941 124.634 main 226 181 __________P___ -1 16.5941 124.634 4 10 296
1932257N14132 1932 50 WP MM NOT_NAMED 1932-09-15 09:00:00 NR 16.8236 124.156 main 181 159 __________P___ -1 16.8236 124.156 4 10 297
1932257N14132 1932 50 WP MM NOT_NAMED 1932-09-15 10:00:00 NR 16.9000 124.000 main 159 127 __________O___ -1 16.9000 124.000 4 10 297
1932257N14132 1932 50 WP MM NOT_NAMED 1932-09-15 12:00:00 NR 17.0468 123.704 main 127 87 __________P___ -1 17.0468 123.704 4 9 298
1932257N14132 1932 50 WP MM NOT_NAMED 1932-09-15 15:00:00 NR 17.2672 123.273 main 91 47 __________P___ -1 17.2672 123.273 4 9 298
1932257N14132 1932 50 WP MM NOT_NAMED 1932-09-15 18:00:00 NR 17.4909 122.836 main 47 31 __________P___ -1 17.4909 122.836 4 10 298
1932257N14132 1932 50 WP MM NOT_NAMED 1932-09-15 21:00:00 NR 17.7213 122.367 main 31 10 __________P___ -1 17.7213 122.367 4 10 297
1932257N14132 1932 50 WP MM NOT_NAMED 1932-09-15 22:00:00 NR 17.8000 122.200 main 10 0 __________O___ -1 17.8000 122.200 4 11 297
1932257N14132 1932 50 WP MM NOT_NAMED 1932-09-16 00:00:00 NR 17.9764 121.848 main 0 0 __________P___ -1 17.9764 121.848 4 12 297
1932257N14132 1932 50 WP MM NOT_NAMED 1932-09-16 03:00:00 NR 18.2477 121.281 main 0 0 __________P___ -1 18.2477 121.281 4 12 295
1932257N14132 1932 50 WP MM NOT_NAMED 1932-09-16 06:00:00 NR 18.5079 120.673 main 10 11 __________P___ -1 18.5079 120.673 4 13 292
1932257N14132 1932 50 WP MM NOT_NAMED 1932-09-16 09:00:00 NR 18.7352 120.024 main 71 71 __________P___ -1 18.7352 120.024 4 13 289
1932257N14132 1932 50 WP MM NOT_NAMED 1932-09-16 10:00:00 NR 18.8000 119.800 main 95 95 __________O___ -1 18.8000 119.800 4 14 285
1932257N14132 1932 50 WP MM NOT_NAMED 1932-09-16 12:00:00 NR 18.9172 119.319 main 147 147 __________P___ -1 18.9172 119.319 4 14 282
1932257N14132 1932 50 WP MM NOT_NAMED 1932-09-16 15:00:00 NR 19.0553 118.565 main 224 234 __________P___ -1 19.0553 118.565 4 14 279
1932257N14132 1932 50 WP MM NOT_NAMED 1932-09-16 18:00:00 NR 19.1477 117.815 main 305 308 __________P___ -1 19.1477 117.815 4 14 276
1932257N14132 1932 50 WP MM NOT_NAMED 1932-09-16 21:00:00 NR 19.1945 117.114 main 378 378 __________P___ -1 19.1945 117.114 4 13 273
1932257N14132 1932 50 WP MM NOT_NAMED 1932-09-16 22:00:00 NR 19.2000 116.900 main 398 398 __________O___ -1 19.2000 116.900 4 11 270
1932257N14132 1932 50 WP MM NOT_NAMED 1932-09-17 00:00:00 NR 19.1919 116.526 main 398 389 __________P___ -1 19.1919 116.526 4 10 266
1932257N14132 1932 50 WP MM NOT_NAMED 1932-09-17 03:00:00 NR 19.1427 116.028 main 397 382 __________P___ -1 19.1427 116.028 4 9 262
1932257N14132 1932 50 WP MM NOT_NAMED 1932-09-17 06:00:00 NR 19.0740 115.578 main 382 375 __________P___ -1 19.0740 115.578 4 8 261
1932257N14132 1932 50 WP MM NOT_NAMED 1932-09-17 09:00:00 NR 19.0136 115.146 main 378 376 __________P___ -1 19.0136 115.146 4 8 262
1932257N14132 1932 50 WP MM NOT_NAMED 1932-09-17 10:00:00 NR 19.0000 115.000 main 376 369 __________O___ -1 19.0000 115.000 4 8 265
1932257N14132 1932 50 WP MM NOT_NAMED 1932-09-17 12:00:00 NR 18.9778 114.706 main 369 351 __________P___ -1 18.9778 114.706 4 8 267
1932257N14132 1932 50 WP MM NOT_NAMED 1932-09-17 15:00:00 NR 18.9633 114.267 main 351 301 __________P___ -1 18.9633 114.267 4 9 271
1932257N14132 1932 50 WP MM NOT_NAMED 1932-09-17 18:00:00 NR 18.9856 113.803 main 301 247 __________P___ -1 18.9856 113.803 4 9 276
1932257N14132 1932 50 WP MM NOT_NAMED 1932-09-17 21:00:00 NR 19.0606 113.288 main 247 227 __________P___ -1 19.0606 113.288 4 10 280
1932257N14132 1932 50 WP MM NOT_NAMED 1932-09-17 22:00:00 NR 19.1000 113.100 main 227 183 __________O___ -1 19.1000 113.100 4 12 283
1932257N14132 1932 50 WP MM NOT_NAMED 1932-09-18 00:00:00 NR 19.1974 112.654 main 183 96 __________P___ -1 19.1974 112.654 4 14 285
1932257N14132 1932 50 WP MM NOT_NAMED 1932-09-18 03:00:00 NR 19.3934 111.927 main 96 20 __________P___ -1 19.3934 111.927 4 15 288
1932257N14132 1932 50 WP MM NOT_NAMED 1932-09-18 06:00:00 NR 19.6347 111.188 main 20 0 __________P___ -1 19.6347 111.188 4 14 291
1932257N14132 1932 50 WP MM NOT_NAMED 1932-09-18 09:00:00 NR 19.9056 110.504 main 0 0 __________P___ -1 19.9056 110.504 4 14 294
1932257N14132 1932 50 WP MM NOT_NAMED 1932-09-18 10:00:00 NR 20.0000 110.300 main 0 0 __________O___ -1 20.0000 110.300 4 12 298
1932257N14132 1932 50 WP MM NOT_NAMED 1932-09-18 12:00:00 NR 20.1923 109.936 main 0 0 __________P___ -1 20.1923 109.936 4 11 303
1932257N14132 1932 50 WP MM NOT_NAMED 1932-09-18 15:00:00 NR 20.4883 109.487 main 31 31 __________P___ -1 20.4883 109.487 4 10 308
1932257N14132 1932 50 WP MM NOT_NAMED 1932-09-18 18:00:00 NR 20.7910 109.121 main 62 53 __________P___ -1 20.7910 109.121 4 9 314
1932257N14132 1932 50 WP MM NOT_NAMED 1932-09-18 21:00:00 NR 21.0975 108.802 main 53 44 __________P___ -1 21.0975 108.802 4 9 316
1932257N14132 1932 50 WP MM NOT_NAMED 1932-09-18 22:00:00 NR 21.2000 108.700 main 44 __________O___ -1 21.2000 108.700 4 8 316

Digital Typhoon Data and Search

About IBTrACS Database

This database is a web-friendly format of International Best Track Archive for Climate Stewardship (IBTrACS), a global best track data archive curated by NOAA dating back to 1842.

Updated: 2021-12-03